sensor_id;sensor_type;location;lat;lon;timestamp;pressure;altitude;pressure_sealevel;temperature;humidity
79461;BME280;68929;42.666;23.324;2023-07-28T00:00:54;94646.06;;;20.73;nan
79461;BME280;68929;42.666;23.324;2023-07-28T00:03:19;94638.84;;;20.69;nan
79461;BME280;68929;42.666;23.324;2023-07-28T00:05:45;94641.41;;;20.89;nan
79461;BME280;68929;42.666;23.324;2023-07-28T00:08:10;94645.22;;;20.83;nan
79461;BME280;68929;42.666;23.324;2023-07-28T00:10:40;94636.13;;;20.74;nan
79461;BME280;68929;42.666;23.324;2023-07-28T00:13:06;94635.63;;;20.67;nan
79461;BME280;68929;42.666;23.324;2023-07-28T00:15:32;94629.75;;;20.65;nan
79461;BME280;68929;42.666;23.324;2023-07-28T00:17:57;94636.31;;;20.34;nan
79461;BME280;68929;42.666;23.324;2023-07-28T00:20:25;94643.19;;;20.55;nan
79461;BME280;68929;42.666;23.324;2023-07-28T00:22:51;94630.34;;;20.47;nan
79461;BME280;68929;42.666;23.324;2023-07-28T00:25:17;94643.00;;;20.41;nan
79461;BME280;68929;42.666;23.324;2023-07-28T00:27:42;94636.28;;;20.44;nan
79461;BME280;68929;42.666;23.324;2023-07-28T00:30:09;94635.69;;;20.47;nan
79461;BME280;68929;42.666;23.324;2023-07-28T00:32:35;94630.38;;;20.37;nan
79461;BME280;68929;42.666;23.324;2023-07-28T00:35:01;94605.19;;;20.18;nan
79461;BME280;68929;42.666;23.324;2023-07-28T00:37:26;94621.56;;;20.16;nan
79461;BME280;68929;42.666;23.324;2023-07-28T00:39:51;94637.38;;;20.38;nan
79461;BME280;68929;42.666;23.324;2023-07-28T00:42:17;94648.09;;;20.38;nan
79461;BME280;68929;42.666;23.324;2023-07-28T00:44:42;94634.69;;;20.33;nan
79461;BME280;68929;42.666;23.324;2023-07-28T00:47:07;94630.66;;;20.30;nan
79461;BME280;68929;42.666;23.324;2023-07-28T00:49:33;94633.91;;;20.22;nan
79461;BME280;68929;42.666;23.324;2023-07-28T00:51:59;94650.03;;;20.22;nan
79461;BME280;68929;42.666;23.324;2023-07-28T00:54:25;94629.94;;;20.00;nan
79461;BME280;68929;42.666;23.324;2023-07-28T00:56:50;94638.47;;;20.12;nan
79461;BME280;68929;42.666;23.324;2023-07-28T00:59:16;94642.75;;;20.28;nan
79461;BME280;68929;42.666;23.324;2023-07-28T01:01:42;94640.06;;;20.33;nan
79461;BME280;68929;42.666;23.324;2023-07-28T01:04:07;94636.84;;;20.31;nan
79461;BME280;68929;42.666;23.324;2023-07-28T01:06:58;94623.47;;;20.06;nan
79461;BME280;68929;42.666;23.324;2023-07-28T01:09:36;94638.56;;;19.81;nan
79461;BME280;68929;42.666;23.324;2023-07-28T01:12:07;94632.41;;;19.51;nan
79461;BME280;68929;42.666;23.324;2023-07-28T01:14:34;94617.66;;;19.38;nan
79461;BME280;68929;42.666;23.324;2023-07-28T01:16:59;94621.94;;;19.44;nan
79461;BME280;68929;42.666;23.324;2023-07-28T01:19:25;94648.19;;;19.92;nan
79461;BME280;68929;42.666;23.324;2023-07-28T01:22:04;94646.06;;;19.69;nan
79461;BME280;68929;42.666;23.324;2023-07-28T01:24:45;94625.69;;;19.63;nan
79461;BME280;68929;42.666;23.324;2023-07-28T01:27:15;94623.03;;;19.48;nan
79461;BME280;68929;42.666;23.324;2023-07-28T01:29:41;94636.44;;;19.58;nan
79461;BME280;68929;42.666;23.324;2023-07-28T01:32:07;94628.38;;;19.58;nan
79461;BME280;68929;42.666;23.324;2023-07-28T01:34:32;94637.47;;;19.67;nan
79461;BME280;68929;42.666;23.324;2023-07-28T01:36:58;94638.53;;;19.71;nan
79461;BME280;68929;42.666;23.324;2023-07-28T01:39:23;94639.91;;;19.69;nan
79461;BME280;68929;42.666;23.324;2023-07-28T01:41:48;94630.50;;;19.76;nan
79461;BME280;68929;42.666;23.324;2023-07-28T01:44:14;94635.88;;;19.71;nan
79461;BME280;68929;42.666;23.324;2023-07-28T01:46:39;94627.28;;;19.74;nan
79461;BME280;68929;42.666;23.324;2023-07-28T01:49:04;94639.59;;;19.90;nan
79461;BME280;68929;42.666;23.324;2023-07-28T01:51:30;94623.00;;;19.78;nan
79461;BME280;68929;42.666;23.324;2023-07-28T01:53:55;94620.31;;;19.63;nan
79461;BME280;68929;42.666;23.324;2023-07-28T01:56:21;94625.72;;;19.43;nan
79461;BME280;68929;42.666;23.324;2023-07-28T01:58:46;94634.50;;;19.24;nan
79461;BME280;68929;42.666;23.324;2023-07-28T02:01:14;94643.91;;;19.36;nan
79461;BME280;68929;42.666;23.324;2023-07-28T02:03:40;94613.88;;;19.29;nan
79461;BME280;68929;42.666;23.324;2023-07-28T02:06:05;94646.91;;;19.40;nan
79461;BME280;68929;42.666;23.324;2023-07-28T02:08:31;94625.13;;;19.26;nan
79461;BME280;68929;42.666;23.324;2023-07-28T02:10:56;94630.00;;;19.49;nan
79461;BME280;68929;42.666;23.324;2023-07-28T02:13:21;94630.25;;;19.53;nan
79461;BME280;68929;42.666;23.324;2023-07-28T02:15:47;94629.16;;;19.59;nan
79461;BME280;68929;42.666;23.324;2023-07-28T02:18:12;94630.53;;;19.56;nan
79461;BME280;68929;42.666;23.324;2023-07-28T02:20:37;94636.41;;;19.63;nan
79461;BME280;68929;42.666;23.324;2023-07-28T02:23:04;94638.84;;;19.60;nan
79461;BME280;68929;42.666;23.324;2023-07-28T02:25:30;94639.91;;;19.39;nan
79461;BME280;68929;42.666;23.324;2023-07-28T02:27:55;94628.94;;;19.35;nan
79461;BME280;68929;42.666;23.324;2023-07-28T02:30:20;94634.28;;;19.35;nan
79461;BME280;68929;42.666;23.324;2023-07-28T02:32:46;94639.38;;;19.37;nan
79461;BME280;68929;42.666;23.324;2023-07-28T02:35:11;94629.47;;;19.47;nan
79461;BME280;68929;42.666;23.324;2023-07-28T02:37:37;94652.78;;;19.62;nan
79461;BME280;68929;42.666;23.324;2023-07-28T02:40:02;94632.13;;;19.57;nan
79461;BME280;68929;42.666;23.324;2023-07-28T02:42:33;94641.22;;;19.76;nan
79461;BME280;68929;42.666;23.324;2023-07-28T02:45:01;94643.38;;;19.74;nan
79461;BME280;68929;42.666;23.324;2023-07-28T02:47:26;94629.47;;;19.62;nan
79461;BME280;68929;42.666;23.324;2023-07-28T02:49:52;94651.97;;;19.61;nan
79461;BME280;68929;42.666;23.324;2023-07-28T02:52:17;94656.28;;;19.52;nan
79461;BME280;68929;42.666;23.324;2023-07-28T02:54:42;94653.06;;;19.50;nan
79461;BME280;68929;42.666;23.324;2023-07-28T02:57:08;94630.53;;;19.36;nan
79461;BME280;68929;42.666;23.324;2023-07-28T02:59:33;94636.69;;;19.47;nan
79461;BME280;68929;42.666;23.324;2023-07-28T03:01:59;94631.34;;;19.37;nan
79461;BME280;68929;42.666;23.324;2023-07-28T03:04:24;94624.56;;;19.09;nan
79461;BME280;68929;42.666;23.324;2023-07-28T03:06:50;94652.75;;;19.27;nan
79461;BME280;68929;42.666;23.324;2023-07-28T03:09:15;94637.44;;;18.97;nan
79461;BME280;68929;42.666;23.324;2023-07-28T03:11:43;94645.06;;;18.48;nan
79461;BME280;68929;42.666;23.324;2023-07-28T03:14:09;94648.94;;;18.20;nan
79461;BME280;68929;42.666;23.324;2023-07-28T03:16:34;94654.06;;;18.32;nan
79461;BME280;68929;42.666;23.324;2023-07-28T03:19:00;94650.13;;;18.45;nan
79461;BME280;68929;42.666;23.324;2023-07-28T03:21:30;94641.09;;;18.61;nan
79461;BME280;68929;42.666;23.324;2023-07-28T03:23:55;94641.09;;;18.61;nan
79461;BME280;68929;42.666;23.324;2023-07-28T03:26:23;94641.44;;;18.22;nan
79461;BME280;68929;42.666;23.324;2023-07-28T03:28:49;94660.94;;;18.65;nan
79461;BME280;68929;42.666;23.324;2023-07-28T03:31:14;94661.22;;;18.78;nan
79461;BME280;68929;42.666;23.324;2023-07-28T03:33:40;94659.06;;;18.70;nan
79461;BME280;68929;42.666;23.324;2023-07-28T03:36:05;94649.09;;;18.56;nan
79461;BME280;68929;42.666;23.324;2023-07-28T03:38:33;94646.22;;;18.15;nan
79461;BME280;68929;42.666;23.324;2023-07-28T03:40:59;94659.38;;;17.75;nan
79461;BME280;68929;42.666;23.324;2023-07-28T03:43:32;94670.53;;;17.40;nan
79461;BME280;68929;42.666;23.324;2023-07-28T03:45:57;94678.13;;;17.22;nan
79461;BME280;68929;42.666;23.324;2023-07-28T03:48:23;94652.03;;;16.75;nan
79461;BME280;68929;42.666;23.324;2023-07-28T03:50:48;94674.91;;;16.66;nan
79461;BME280;68929;42.666;23.324;2023-07-28T03:53:13;94668.94;;;16.59;nan
79461;BME280;68929;42.666;23.324;2023-07-28T03:55:39;94675.13;;;16.43;nan
79461;BME280;68929;42.666;23.324;2023-07-28T03:58:04;94670.59;;;16.44;nan
79461;BME280;68929;42.666;23.324;2023-07-28T04:00:29;94678.38;;;16.45;nan
79461;BME280;68929;42.666;23.324;2023-07-28T04:02:59;94653.56;;;16.66;nan
79461;BME280;68929;42.666;23.324;2023-07-28T04:05:24;94660.00;;;16.70;nan
79461;BME280;68929;42.666;23.324;2023-07-28T04:07:49;94657.28;;;16.65;nan
79461;BME280;68929;42.666;23.324;2023-07-28T04:10:15;94674.03;;;16.39;nan
79461;BME280;68929;42.666;23.324;2023-07-28T04:12:40;94681.25;;;16.60;nan
79461;BME280;68929;42.666;23.324;2023-07-28T04:15:06;94663.69;;;16.64;nan
79461;BME280;68929;42.666;23.324;2023-07-28T04:17:32;94684.16;;;17.39;nan
79461;BME280;68929;42.666;23.324;2023-07-28T04:19:57;94672.78;;;17.22;nan
79461;BME280;68929;42.666;23.324;2023-07-28T04:22:23;94675.59;;;17.37;nan
79461;BME280;68929;42.666;23.324;2023-07-28T04:24:48;94662.88;;;17.49;nan
79461;BME280;68929;42.666;23.324;2023-07-28T04:27:14;94659.34;;;17.43;nan
79461;BME280;68929;42.666;23.324;2023-07-28T04:29:39;94667.06;;;18.08;nan
79461;BME280;68929;42.666;23.324;2023-07-28T04:32:05;94677.25;;;18.16;nan
79461;BME280;68929;42.666;23.324;2023-07-28T04:34:33;94680.66;;;18.44;nan
79461;BME280;68929;42.666;23.324;2023-07-28T04:36:59;94679.13;;;18.63;nan
79461;BME280;68929;42.666;23.324;2023-07-28T04:39:25;94678.69;;;18.96;nan
79461;BME280;68929;42.666;23.324;2023-07-28T04:41:50;94689.34;;;18.86;nan
79461;BME280;68929;42.666;23.324;2023-07-28T04:44:16;94658.28;;;18.80;nan
79461;BME280;68929;42.666;23.324;2023-07-28T04:46:42;94663.09;;;18.88;nan
79461;BME280;68929;42.666;23.324;2023-07-28T04:49:08;94671.75;;;19.10;nan
79461;BME280;68929;42.666;23.324;2023-07-28T04:51:33;94673.34;;;18.96;nan
79461;BME280;68929;42.666;23.324;2023-07-28T04:53:58;94675.47;;;19.09;nan
79461;BME280;68929;42.666;23.324;2023-07-28T04:56:24;94677.00;;;18.65;nan
79461;BME280;68929;42.666;23.324;2023-07-28T04:58:49;94684.75;;;18.66;nan
79461;BME280;68929;42.666;23.324;2023-07-28T05:01:14;94676.38;;;18.48;nan
79461;BME280;68929;42.666;23.324;2023-07-28T05:03:41;94659.97;;;18.39;nan
79461;BME280;68929;42.666;23.324;2023-07-28T05:06:06;94673.19;;;18.56;nan
79461;BME280;68929;42.666;23.324;2023-07-28T05:08:32;94660.94;;;18.65;nan
79461;BME280;68929;42.666;23.324;2023-07-28T05:10:57;94677.09;;;19.05;nan
79461;BME280;68929;42.666;23.324;2023-07-28T05:13:23;94681.25;;;18.61;nan
79461;BME280;68929;42.666;23.324;2023-07-28T05:15:48;94684.00;;;18.86;nan
79461;BME280;68929;42.666;23.324;2023-07-28T05:18:13;94688.81;;;18.79;nan
79461;BME280;68929;42.666;23.324;2023-07-28T05:20:39;94688.31;;;18.92;nan
79461;BME280;68929;42.666;23.324;2023-07-28T05:23:04;94676.00;;;18.91;nan
79461;BME280;68929;42.666;23.324;2023-07-28T05:25:30;94663.53;;;18.55;nan
79461;BME280;68929;42.666;23.324;2023-07-28T05:27:55;94681.31;;;18.24;nan
79461;BME280;68929;42.666;23.324;2023-07-28T05:30:21;94681.84;;;18.78;nan
79461;BME280;68929;42.666;23.324;2023-07-28T05:32:47;94690.97;;;18.87;nan
79461;BME280;68929;42.666;23.324;2023-07-28T05:35:24;94665.31;;;19.11;nan
79461;BME280;68929;42.666;23.324;2023-07-28T05:37:49;94675.84;;;19.38;nan
79461;BME280;68929;42.666;23.324;2023-07-28T05:40:14;94661.63;;;19.72;nan
79461;BME280;68929;42.666;23.324;2023-07-28T05:42:40;94680.41;;;19.72;nan
79461;BME280;68929;42.666;23.324;2023-07-28T05:45:06;94662.16;;;19.49;nan
79461;BME280;68929;42.666;23.324;2023-07-28T05:47:31;94680.41;;;19.87;nan
79461;BME280;68929;42.666;23.324;2023-07-28T05:50:01;94676.91;;;19.77;nan
79461;BME280;68929;42.666;23.324;2023-07-28T05:52:26;94668.56;;;19.99;nan
79461;BME280;68929;42.666;23.324;2023-07-28T05:54:52;94666.97;;;19.82;nan
79461;BME280;68929;42.666;23.324;2023-07-28T05:57:18;94669.09;;;20.21;nan
79461;BME280;68929;42.666;23.324;2023-07-28T05:59:44;94665.81;;;20.39;nan
79461;BME280;68929;42.666;23.324;2023-07-28T06:02:11;94623.47;;;20.06;nan
79461;BME280;68929;42.666;23.324;2023-07-28T06:04:37;94665.56;;;20.30;nan
79461;BME280;68929;42.666;23.324;2023-07-28T06:07:06;94660.09;;;20.55;nan
79461;BME280;68929;42.666;23.324;2023-07-28T06:09:32;94657.72;;;20.54;nan
79461;BME280;68929;42.666;23.324;2023-07-28T06:11:58;94657.13;;;20.67;nan
79461;BME280;68929;42.666;23.324;2023-07-28T06:14:23;94656.13;;;21.07;nan
79461;BME280;68929;42.666;23.324;2023-07-28T06:16:49;94645.25;;;21.27;nan
79461;BME280;68929;42.666;23.324;2023-07-28T06:19:18;94660.09;;;21.19;nan
79461;BME280;68929;42.666;23.324;2023-07-28T06:21:49;94639.19;;;21.06;nan
79461;BME280;68929;42.666;23.324;2023-07-28T06:24:15;94664.09;;;21.61;nan
79461;BME280;68929;42.666;23.324;2023-07-28T06:26:41;94634.09;;;21.77;nan
79461;BME280;68929;42.666;23.324;2023-07-28T06:29:06;94633.22;;;21.87;nan
79461;BME280;68929;42.666;23.324;2023-07-28T06:31:32;94645.66;;;21.78;nan
79461;BME280;68929;42.666;23.324;2023-07-28T06:33:57;94649.94;;;21.84;nan
79461;BME280;68929;42.666;23.324;2023-07-28T06:36:26;94641.69;;;21.99;nan
79461;BME280;68929;42.666;23.324;2023-07-28T06:38:52;94641.34;;;21.77;nan
79461;BME280;68929;42.666;23.324;2023-07-28T06:41:20;94652.56;;;21.89;nan
79461;BME280;68929;42.666;23.324;2023-07-28T06:43:45;94633.38;;;21.67;nan
79461;BME280;68929;42.666;23.324;2023-07-28T06:46:11;94638.94;;;22.09;nan
79461;BME280;68929;42.666;23.324;2023-07-28T06:48:37;94635.19;;;22.05;nan
79461;BME280;68929;42.666;23.324;2023-07-28T06:51:02;94642.19;;;22.06;nan
79461;BME280;68929;42.666;23.324;2023-07-28T06:53:31;94658.13;;;22.50;nan
79461;BME280;68929;42.666;23.324;2023-07-28T06:55:56;94646.31;;;22.22;nan
79461;BME280;68929;42.666;23.324;2023-07-28T06:58:21;94655.16;;;21.99;nan
79461;BME280;68929;42.666;23.324;2023-07-28T07:00:47;94652.63;;;21.79;nan
79461;BME280;68929;42.666;23.324;2023-07-28T07:03:13;94629.34;;;21.98;nan
79461;BME280;68929;42.666;23.324;2023-07-28T07:05:39;94643.94;;;22.44;nan
79461;BME280;68929;42.666;23.324;2023-07-28T07:08:05;94654.47;;;22.88;nan
79461;BME280;68929;42.666;23.324;2023-07-28T07:10:30;94629.44;;;22.82;nan
79461;BME280;68929;42.666;23.324;2023-07-28T07:12:55;94637.19;;;23.08;nan
79461;BME280;68929;42.666;23.324;2023-07-28T07:15:21;94642.88;;;23.25;nan
79461;BME280;68929;42.666;23.324;2023-07-28T07:17:47;94644.72;;;23.29;nan
79461;BME280;68929;42.666;23.324;2023-07-28T07:20:12;94650.91;;;23.67;nan
79461;BME280;68929;42.666;23.324;2023-07-28T07:22:38;94637.59;;;23.38;nan
79461;BME280;68929;42.666;23.324;2023-07-28T07:25:04;94650.22;;;23.75;nan
79461;BME280;68929;42.666;23.324;2023-07-28T07:27:35;94626.50;;;23.72;nan
79461;BME280;68929;42.666;23.324;2023-07-28T07:30:00;94648.09;;;23.72;nan
79461;BME280;68929;42.666;23.324;2023-07-28T07:32:26;94653.31;;;23.13;nan
79461;BME280;68929;42.666;23.324;2023-07-28T07:34:51;94641.78;;;23.63;nan
79461;BME280;68929;42.666;23.324;2023-07-28T07:37:24;94643.94;;;24.12;nan
79461;BME280;68929;42.666;23.324;2023-07-28T07:39:49;94666.16;;;24.22;nan
79461;BME280;68929;42.666;23.324;2023-07-28T07:42:15;94646.47;;;23.39;nan
79461;BME280;68929;42.666;23.324;2023-07-28T07:44:40;94645.81;;;23.47;nan
79461;BME280;68929;42.666;23.324;2023-07-28T07:47:13;94650.38;;;23.97;nan
79461;BME280;68929;42.666;23.324;2023-07-28T07:49:42;94661.50;;;24.28;nan
79461;BME280;68929;42.666;23.324;2023-07-28T07:52:08;94648.69;;;24.33;nan
79461;BME280;68929;42.666;23.324;2023-07-28T07:54:35;94647.94;;;24.74;nan
79461;BME280;68929;42.666;23.324;2023-07-28T07:57:01;94662.19;;;25.01;nan
79461;BME280;68929;42.666;23.324;2023-07-28T07:59:33;94658.13;;;24.77;nan
79461;BME280;68929;42.666;23.324;2023-07-28T08:02:09;94648.94;;;25.27;nan
79461;BME280;68929;42.666;23.324;2023-07-28T08:04:35;94647.00;;;25.41;nan
79461;BME280;68929;42.666;23.324;2023-07-28T08:07:01;94626.41;;;25.18;nan
79461;BME280;68929;42.666;23.324;2023-07-28T08:09:33;94649.25;;;25.61;nan
79461;BME280;68929;42.666;23.324;2023-07-28T08:12:04;94649.75;;;25.63;nan
79461;BME280;68929;42.666;23.324;2023-07-28T08:14:29;94646.91;;;25.68;nan
79461;BME280;68929;42.666;23.324;2023-07-28T08:16:55;94647.94;;;25.81;nan
79461;BME280;68929;42.666;23.324;2023-07-28T08:19:20;94654.91;;;25.95;nan
79461;BME280;68929;42.666;23.324;2023-07-28T08:21:45;94653.38;;;25.59;nan
79461;BME280;68929;42.666;23.324;2023-07-28T08:24:11;94607.91;;;25.69;nan
79461;BME280;68929;42.666;23.324;2023-07-28T08:26:37;94652.28;;;25.82;nan
79461;BME280;68929;42.666;23.324;2023-07-28T08:29:02;94614.75;;;25.31;nan
79461;BME280;68929;42.666;23.324;2023-07-28T08:31:28;94640.94;;;25.80;nan
79461;BME280;68929;42.666;23.324;2023-07-28T08:33:59;94636.69;;;25.87;nan
79461;BME280;68929;42.666;23.324;2023-07-28T08:36:25;94648.47;;;26.36;nan
79461;BME280;68929;42.666;23.324;2023-07-28T08:38:50;94651.28;;;26.22;nan
79461;BME280;68929;42.666;23.324;2023-07-28T08:41:15;94643.22;;;26.08;nan
79461;BME280;68929;42.666;23.324;2023-07-28T08:43:45;94638.38;;;26.28;nan
79461;BME280;68929;42.666;23.324;2023-07-28T08:46:11;94647.19;;;26.33;nan
79461;BME280;68929;42.666;23.324;2023-07-28T08:48:37;94651.59;;;26.60;nan
79461;BME280;68929;42.666;23.324;2023-07-28T08:51:03;94627.94;;;26.43;nan
79461;BME280;68929;42.666;23.324;2023-07-28T08:53:39;94626.44;;;26.68;nan
79461;BME280;68929;42.666;23.324;2023-07-28T08:56:11;94629.06;;;26.42;nan
79461;BME280;68929;42.666;23.324;2023-07-28T08:58:47;94627.34;;;26.55;nan
79461;BME280;68929;42.666;23.324;2023-07-28T09:01:31;94630.53;;;26.96;nan
79461;BME280;68929;42.666;23.324;2023-07-28T09:03:59;94607.88;;;27.01;nan
79461;BME280;68929;42.666;23.324;2023-07-28T09:06:29;94608.41;;;27.28;nan
79461;BME280;68929;42.666;23.324;2023-07-28T09:08:57;94617.69;;;27.53;nan
79461;BME280;68929;42.666;23.324;2023-07-28T09:11:24;94607.75;;;27.31;nan
79461;BME280;68929;42.666;23.324;2023-07-28T09:13:59;94595.91;;;26.93;nan
79461;BME280;68929;42.666;23.324;2023-07-28T09:16:30;94600.19;;;26.85;nan
79461;BME280;68929;42.666;23.324;2023-07-28T09:19:05;94606.16;;;27.13;nan
79461;BME280;68929;42.666;23.324;2023-07-28T09:21:32;94589.78;;;26.79;nan
79461;BME280;68929;42.666;23.324;2023-07-28T09:24:11;94576.91;;;27.02;nan
79461;BME280;68929;42.666;23.324;2023-07-28T09:26:48;94571.69;;;27.56;nan
79461;BME280;68929;42.666;23.324;2023-07-28T09:29:22;94579.31;;;27.89;nan
79461;BME280;68929;42.666;23.324;2023-07-28T09:31:49;94567.66;;;27.80;nan
79461;BME280;68929;42.666;23.324;2023-07-28T09:34:25;94565.31;;;28.24;nan
79461;BME280;68929;42.666;23.324;2023-07-28T09:37:04;94552.63;;;28.37;nan
79461;BME280;68929;42.666;23.324;2023-07-28T09:39:30;94561.47;;;28.63;nan
79461;BME280;68929;42.666;23.324;2023-07-28T09:42:06;94560.44;;;28.76;nan
79461;BME280;68929;42.666;23.324;2023-07-28T09:44:34;94541.41;;;28.76;nan
79461;BME280;68929;42.666;23.324;2023-07-28T09:47:03;94555.56;;;29.11;nan
79461;BME280;68929;42.666;23.324;2023-07-28T09:49:49;94552.88;;;29.32;nan
79461;BME280;68929;42.666;23.324;2023-07-28T09:52:16;94546.78;;;29.67;nan
79461;BME280;68929;42.666;23.324;2023-07-28T09:54:57;94536.28;;;29.78;nan
79461;BME280;68929;42.666;23.324;2023-07-28T09:57:25;94542.47;;;29.87;nan
79461;BME280;68929;42.666;23.324;2023-07-28T09:59:54;94542.94;;;30.13;nan
79461;BME280;68929;42.666;23.324;2023-07-28T10:02:21;94537.78;;;30.32;nan
79461;BME280;68929;42.666;23.324;2023-07-28T10:04:54;94536.88;;;30.40;nan
79461;BME280;68929;42.666;23.324;2023-07-28T10:07:20;94532.69;;;30.31;nan
79461;BME280;68929;42.666;23.324;2023-07-28T10:09:58;94525.69;;;30.09;nan
79461;BME280;68929;42.666;23.324;2023-07-28T10:12:24;94537.22;;;30.51;nan
79461;BME280;68929;42.666;23.324;2023-07-28T10:15:13;94516.41;;;30.58;nan
79461;BME280;68929;42.666;23.324;2023-07-28T10:17:43;94529.16;;;30.66;nan
79461;BME280;68929;42.666;23.324;2023-07-28T10:22:53;94522.47;;;31.28;nan
79461;BME280;68929;42.666;23.324;2023-07-28T10:25:25;94515.13;;;31.72;nan
79461;BME280;68929;42.666;23.324;2023-07-28T10:27:51;94529.25;;;31.74;nan
79461;BME280;68929;42.666;23.324;2023-07-28T10:30:17;94517.09;;;32.30;nan
79461;BME280;68929;42.666;23.324;2023-07-28T10:32:49;94516.81;;;32.04;nan
79461;BME280;68929;42.666;23.324;2023-07-28T10:35:25;94499.88;;;32.61;nan
79461;BME280;68929;42.666;23.324;2023-07-28T10:37:53;94516.66;;;33.63;nan
79461;BME280;68929;42.666;23.324;2023-07-28T10:40:35;94510.81;;;33.65;nan
79461;BME280;68929;42.666;23.324;2023-07-28T10:43:05;94510.88;;;33.88;nan
79461;BME280;68929;42.666;23.324;2023-07-28T10:45:31;94491.69;;;33.68;nan
79461;BME280;68929;42.666;23.324;2023-07-28T10:47:58;94492.03;;;33.48;nan
79461;BME280;68929;42.666;23.324;2023-07-28T10:50:35;94498.31;;;33.10;nan
79461;BME280;68929;42.666;23.324;2023-07-28T10:53:00;94497.53;;;33.48;nan
79461;BME280;68929;42.666;23.324;2023-07-28T10:55:27;94498.31;;;33.67;nan
79461;BME280;68929;42.666;23.324;2023-07-28T10:57:53;94498.44;;;34.13;nan
79461;BME280;68929;42.666;23.324;2023-07-28T11:00:21;94488.09;;;35.00;nan
79461;BME280;68929;42.666;23.324;2023-07-28T11:02:49;94474.81;;;34.31;nan
79461;BME280;68929;42.666;23.324;2023-07-28T11:05:37;94474.72;;;34.73;nan
79461;BME280;68929;42.666;23.324;2023-07-28T11:08:10;94483.00;;;35.62;nan
79461;BME280;68929;42.666;23.324;2023-07-28T11:10:37;94478.34;;;35.66;nan
79461;BME280;68929;42.666;23.324;2023-07-28T11:13:04;94463.38;;;35.00;nan
79461;BME280;68929;42.666;23.324;2023-07-28T11:15:34;94467.28;;;34.99;nan
79461;BME280;68929;42.666;23.324;2023-07-28T11:18:00;94448.94;;;36.06;nan
79461;BME280;68929;42.666;23.324;2023-07-28T11:20:27;94461.03;;;36.90;nan
79461;BME280;68929;42.666;23.324;2023-07-28T11:22:54;94453.25;;;36.48;nan
79461;BME280;68929;42.666;23.324;2023-07-28T11:25:32;94453.94;;;35.61;nan
79461;BME280;68929;42.666;23.324;2023-07-28T11:28:07;94445.47;;;36.13;nan
79461;BME280;68929;42.666;23.324;2023-07-28T11:30:36;94437.69;;;36.69;nan
79461;BME280;68929;42.666;23.324;2023-07-28T11:33:09;94443.13;;;36.62;nan
79461;BME280;68929;42.666;23.324;2023-07-28T11:35:36;94436.78;;;36.55;nan
79461;BME280;68929;42.666;23.324;2023-07-28T11:38:01;94433.94;;;36.99;nan
79461;BME280;68929;42.666;23.324;2023-07-28T11:40:27;94432.81;;;37.07;nan
79461;BME280;68929;42.666;23.324;2023-07-28T11:42:55;94436.59;;;37.67;nan
79461;BME280;68929;42.666;23.324;2023-07-28T11:45:22;94422.56;;;38.43;nan
79461;BME280;68929;42.666;23.324;2023-07-28T11:48:04;94420.16;;;38.83;nan
79461;BME280;68929;42.666;23.324;2023-07-28T11:50:39;94422.13;;;38.79;nan
79461;BME280;68929;42.666;23.324;2023-07-28T11:53:06;94421.31;;;37.98;nan
79461;BME280;68929;42.666;23.324;2023-07-28T11:55:33;94433.59;;;38.25;nan
79461;BME280;68929;42.666;23.324;2023-07-28T11:58:00;94411.47;;;38.04;nan
79461;BME280;68929;42.666;23.324;2023-07-28T12:00:45;94409.78;;;37.64;nan
79461;BME280;68929;42.666;23.324;2023-07-28T12:03:29;94412.31;;;38.25;nan
79461;BME280;68929;42.666;23.324;2023-07-28T12:06:05;94416.09;;;37.61;nan
79461;BME280;68929;42.666;23.324;2023-07-28T12:08:43;94394.94;;;38.21;nan
79461;BME280;68929;42.666;23.324;2023-07-28T12:11:13;94408.22;;;39.18;nan
79461;BME280;68929;42.666;23.324;2023-07-28T12:13:53;94423.34;;;37.04;nan
79461;BME280;68929;42.666;23.324;2023-07-28T12:19:03;94417.41;;;38.09;nan
79461;BME280;68929;42.666;23.324;2023-07-28T12:21:33;94412.97;;;39.21;nan
79461;BME280;68929;42.666;23.324;2023-07-28T12:23:59;94394.41;;;37.56;nan
79461;BME280;68929;42.666;23.324;2023-07-28T12:26:24;94401.41;;;36.60;nan
79461;BME280;68929;42.666;23.324;2023-07-28T12:28:50;94393.31;;;36.34;nan
79461;BME280;68929;42.666;23.324;2023-07-28T12:31:16;94383.75;;;36.18;nan
79461;BME280;68929;42.666;23.324;2023-07-28T12:33:41;94373.72;;;35.18;nan
79461;BME280;68929;42.666;23.324;2023-07-28T12:36:07;94382.19;;;34.77;nan
79461;BME280;68929;42.666;23.324;2023-07-28T12:38:32;94394.75;;;34.78;nan
79461;BME280;68929;42.666;23.324;2023-07-28T12:41:09;94390.75;;;34.72;nan
79461;BME280;68929;42.666;23.324;2023-07-28T12:43:34;94382.88;;;35.29;nan
79461;BME280;68929;42.666;23.324;2023-07-28T12:45:59;94375.09;;;36.16;nan
79461;BME280;68929;42.666;23.324;2023-07-28T12:48:25;94378.09;;;37.16;nan
79461;BME280;68929;42.666;23.324;2023-07-28T12:50:50;94381.91;;;38.54;nan
79461;BME280;68929;42.666;23.324;2023-07-28T12:53:16;94372.03;;;37.89;nan
79461;BME280;68929;42.666;23.324;2023-07-28T12:55:42;94372.84;;;37.86;nan
79461;BME280;68929;42.666;23.324;2023-07-28T12:58:07;94376.63;;;39.19;nan
79461;BME280;68929;42.666;23.324;2023-07-28T13:00:33;94371.66;;;38.72;nan
79461;BME280;68929;42.666;23.324;2023-07-28T13:02:58;94362.97;;;38.17;nan
79461;BME280;68929;42.666;23.324;2023-07-28T13:05:24;94368.09;;;36.79;nan
79461;BME280;68929;42.666;23.324;2023-07-28T13:07:49;94348.34;;;36.70;nan
79461;BME280;68929;42.666;23.324;2023-07-28T13:10:18;94362.13;;;36.74;nan
79461;BME280;68929;42.666;23.324;2023-07-28T13:12:47;94356.16;;;37.33;nan
79461;BME280;68929;42.666;23.324;2023-07-28T13:15:15;94332.59;;;37.71;nan
79461;BME280;68929;42.666;23.324;2023-07-28T13:17:41;94346.00;;;37.87;nan